sensor_id;sensor_type;location;lat;lon;timestamp;temperature;humidity
18252;DHT22;26917;52.328;20.878;2022-09-06T06:23:15;10.70;94.80
18252;DHT22;26917;52.328;20.878;2022-09-06T06:43:17;11.30;94.50
18252;DHT22;26917;52.328;20.878;2022-09-06T06:54:57;12.60;93.20
18252;DHT22;26917;52.328;20.878;2022-09-06T06:58:07;13.40;92.90
18252;DHT22;26917;52.328;20.878;2022-09-06T07:01:43;13.80;92.10
18252;DHT22;26917;52.328;20.878;2022-09-06T07:04:43;14.00;91.30
18252;DHT22;26917;52.328;20.878;2022-09-06T07:11:37;14.00;90.30
18252;DHT22;26917;52.328;20.878;2022-09-06T07:28:35;13.50;90.40
18252;DHT22;26917;52.328;20.878;2022-09-06T07:34:45;13.50;89.10
18252;DHT22;26917;52.328;20.878;2022-09-06T07:44:28;13.50;88.00
18252;DHT22;26917;52.328;20.878;2022-09-06T07:46:56;13.50;88.60
18252;DHT22;26917;52.328;20.878;2022-09-06T07:50:11;13.60;86.30
18252;DHT22;26917;52.328;20.878;2022-09-06T07:57:11;13.70;86.90
18252;DHT22;26917;52.328;20.878;2022-09-06T08:00:06;13.90;87.30
18252;DHT22;26917;52.328;20.878;2022-09-06T08:07:38;14.00;86.30
18252;DHT22;26917;52.328;20.878;2022-09-06T08:12:11;14.10;86.80
18252;DHT22;26917;52.328;20.878;2022-09-06T08:14:26;14.30;83.10
18252;DHT22;26917;52.328;20.878;2022-09-06T08:18:11;14.80;84.40
18252;DHT22;26917;52.328;20.878;2022-09-06T08:20:49;15.30;78.90
18252;DHT22;26917;52.328;20.878;2022-09-06T08:24:04;15.50;79.60
18252;DHT22;26917;52.328;20.878;2022-09-06T08:30:51;15.70;80.10
18252;DHT22;26917;52.328;20.878;2022-09-06T08:34:01;15.70;80.30
18252;DHT22;26917;52.328;20.878;2022-09-06T08:36:49;15.70;79.80
18252;DHT22;26917;52.328;20.878;2022-09-06T08:39:20;15.60;80.00
18252;DHT22;26917;52.328;20.878;2022-09-06T08:50:44;15.70;80.50
18252;DHT22;26917;52.328;20.878;2022-09-06T08:53:21;15.80;78.50
18252;DHT22;26917;52.328;20.878;2022-09-06T08:55:54;15.80;78.10
18252;DHT22;26917;52.328;20.878;2022-09-06T08:59:18;15.90;78.00
18252;DHT22;26917;52.328;20.878;2022-09-06T09:03:29;16.10;76.70
18252;DHT22;26917;52.328;20.878;2022-09-06T09:06:45;16.40;76.60
18252;DHT22;26917;52.328;20.878;2022-09-06T09:10:06;16.60;77.10
18252;DHT22;26917;52.328;20.878;2022-09-06T09:12:43;16.80;77.40
18252;DHT22;26917;52.328;20.878;2022-09-06T09:15:35;16.90;75.40
18252;DHT22;26917;52.328;20.878;2022-09-06T09:18:35;17.00;74.50
18252;DHT22;26917;52.328;20.878;2022-09-06T09:22:07;17.20;74.80
18252;DHT22;26917;52.328;20.878;2022-09-06T09:25:21;18.00;73.00
18252;DHT22;26917;52.328;20.878;2022-09-06T09:28:29;19.50;71.10
18252;DHT22;26917;52.328;20.878;2022-09-06T09:31:06;20.90;67.80
18252;DHT22;26917;52.328;20.878;2022-09-06T09:34:00;21.80;66.10
18252;DHT22;26917;52.328;20.878;2022-09-06T09:36:33;22.20;64.30
18252;DHT22;26917;52.328;20.878;2022-09-06T09:43:55;21.90;64.10
18252;DHT22;26917;52.328;20.878;2022-09-06T09:46:31;21.50;65.60
18252;DHT22;26917;52.328;20.878;2022-09-06T09:49:08;21.20;65.30
18252;DHT22;26917;52.328;20.878;2022-09-06T09:51:41;20.90;66.30
18252;DHT22;26917;52.328;20.878;2022-09-06T09:54:28;20.60;65.50
18252;DHT22;26917;52.328;20.878;2022-09-06T09:58:07;20.30;66.30
18252;DHT22;26917;52.328;20.878;2022-09-06T10:02:40;19.90;68.90
18252;DHT22;26917;52.328;20.878;2022-09-06T10:05:20;19.60;68.40
18252;DHT22;26917;52.328;20.878;2022-09-06T10:08:24;19.40;68.00
18252;DHT22;26917;52.328;20.878;2022-09-06T10:11:11;19.30;68.70
18252;DHT22;26917;52.328;20.878;2022-09-06T10:14:04;19.00;69.90
18252;DHT22;26917;52.328;20.878;2022-09-06T10:17:59;18.90;69.90
18252;DHT22;26917;52.328;20.878;2022-09-06T10:20:32;18.80;70.30
18252;DHT22;26917;52.328;20.878;2022-09-06T10:23:30;18.60;69.60
18252;DHT22;26917;52.328;20.878;2022-09-06T10:26:25;18.70;70.20
18252;DHT22;26917;52.328;20.878;2022-09-06T10:29:06;18.60;69.50
18252;DHT22;26917;52.328;20.878;2022-09-06T10:36:26;18.60;70.30
18252;DHT22;26917;52.328;20.878;2022-09-06T10:43:21;18.60;70.60
18252;DHT22;26917;52.328;20.878;2022-09-06T10:46:18;18.60;72.20
18252;DHT22;26917;52.328;20.878;2022-09-06T10:49:04;18.60;71.20
18252;DHT22;26917;52.328;20.878;2022-09-06T10:55:55;18.70;71.10
18252;DHT22;26917;52.328;20.878;2022-09-06T10:58:43;18.70;70.10
18252;DHT22;26917;52.328;20.878;2022-09-06T11:01:40;18.70;68.60
18252;DHT22;26917;52.328;20.878;2022-09-06T11:04:33;18.80;69.00
18252;DHT22;26917;52.328;20.878;2022-09-06T11:07:41;18.80;69.40
18252;DHT22;26917;52.328;20.878;2022-09-06T11:17:06;18.80;66.30
18252;DHT22;26917;52.328;20.878;2022-09-06T11:19:41;18.80;66.30
18252;DHT22;26917;52.328;20.878;2022-09-06T11:22:43;18.80;66.90
18252;DHT22;26917;52.328;20.878;2022-09-06T11:28:27;18.90;66.30
18252;DHT22;26917;52.328;20.878;2022-09-06T11:31:03;18.90;65.90
18252;DHT22;26917;52.328;20.878;2022-09-06T11:33:41;18.90;65.30
18252;DHT22;26917;52.328;20.878;2022-09-06T11:36:31;18.90;64.60
18252;DHT22;26917;52.328;20.878;2022-09-06T11:39:03;19.00;65.60
18252;DHT22;26917;52.328;20.878;2022-09-06T11:44:03;19.00;62.80
18252;DHT22;26917;52.328;20.878;2022-09-06T11:45:48;19.10;64.00
18252;DHT22;26917;52.328;20.878;2022-09-06T11:51:40;19.00;66.10
18252;DHT22;26917;52.328;20.878;2022-09-06T11:55:02;19.10;66.00
18252;DHT22;26917;52.328;20.878;2022-09-06T11:57:31;19.10;66.10
18252;DHT22;26917;52.328;20.878;2022-09-06T12:00:17;19.10;65.90
18252;DHT22;26917;52.328;20.878;2022-09-06T12:02:50;19.20;66.30
18252;DHT22;26917;52.328;20.878;2022-09-06T12:08:56;19.00;62.90
18252;DHT22;26917;52.328;20.878;2022-09-06T12:11:37;19.20;63.30
18252;DHT22;26917;52.328;20.878;2022-09-06T12:14:50;19.20;64.20
18252;DHT22;26917;52.328;20.878;2022-09-06T12:17:20;19.20;65.10
18252;DHT22;26917;52.328;20.878;2022-09-06T12:19:56;19.20;63.40
18252;DHT22;26917;52.328;20.878;2022-09-06T12:23:01;19.20;60.10
18252;DHT22;26917;52.328;20.878;2022-09-06T12:25:57;19.20;61.50
18252;DHT22;26917;52.328;20.878;2022-09-06T12:28:54;19.20;61.90
18252;DHT22;26917;52.328;20.878;2022-09-06T12:35:13;19.20;63.00
18252;DHT22;26917;52.328;20.878;2022-09-06T12:38:12;19.20;63.10
18252;DHT22;26917;52.328;20.878;2022-09-06T12:40:45;19.20;61.30
18252;DHT22;26917;52.328;20.878;2022-09-06T12:43:31;19.20;62.20
18252;DHT22;26917;52.328;20.878;2022-09-06T12:46:25;19.20;62.10
18252;DHT22;26917;52.328;20.878;2022-09-06T12:49:06;19.30;62.80
18252;DHT22;26917;52.328;20.878;2022-09-06T12:53:01;19.20;61.60
18252;DHT22;26917;52.328;20.878;2022-09-06T12:55:43;19.30;61.30
18252;DHT22;26917;52.328;20.878;2022-09-06T13:02:13;19.30;61.30
18252;DHT22;26917;52.328;20.878;2022-09-06T13:05:11;19.20;62.60
18252;DHT22;26917;52.328;20.878;2022-09-06T13:07:45;19.30;61.90
18252;DHT22;26917;52.328;20.878;2022-09-06T13:10:24;19.30;61.90
18252;DHT22;26917;52.328;20.878;2022-09-06T13:12:55;19.30;61.60
18252;DHT22;26917;52.328;20.878;2022-09-06T13:15:44;19.30;60.60
18252;DHT22;26917;52.328;20.878;2022-09-06T13:18:36;19.30;62.40
18252;DHT22;26917;52.328;20.878;2022-09-06T13:21:28;19.30;63.00
18252;DHT22;26917;52.328;20.878;2022-09-06T13:24:22;19.40;63.30
18252;DHT22;26917;52.328;20.878;2022-09-06T13:26:54;19.50;61.60
18252;DHT22;26917;52.328;20.878;2022-09-06T13:29:29;19.50;60.90
18252;DHT22;26917;52.328;20.878;2022-09-06T13:52:59;19.60;60.60
18252;DHT22;26917;52.328;20.878;2022-09-06T13:59:35;19.50;60.60
18252;DHT22;26917;52.328;20.878;2022-09-06T14:02:14;19.40;60.90
18252;DHT22;26917;52.328;20.878;2022-09-06T14:04:50;19.40;61.20
18252;DHT22;26917;52.328;20.878;2022-09-06T14:08:03;19.40;61.80
18252;DHT22;26917;52.328;20.878;2022-09-06T14:10:41;19.40;60.10
18252;DHT22;26917;52.328;20.878;2022-09-06T14:13:19;19.40;59.50
18252;DHT22;26917;52.328;20.878;2022-09-06T14:15:53;19.40;61.20
18252;DHT22;26917;52.328;20.878;2022-09-06T14:18:58;19.30;61.40
18252;DHT22;26917;52.328;20.878;2022-09-06T14:21:59;19.30;61.50
18252;DHT22;26917;52.328;20.878;2022-09-06T14:25:17;19.30;62.20
18252;DHT22;26917;52.328;20.878;2022-09-06T14:27:36;19.20;62.30
18252;DHT22;26917;52.328;20.878;2022-09-06T14:30:12;19.10;59.20
18252;DHT22;26917;52.328;20.878;2022-09-06T14:32:43;19.10;60.40
18252;DHT22;26917;52.328;20.878;2022-09-06T14:35:12;19.10;61.60
18252;DHT22;26917;52.328;20.878;2022-09-06T14:41:08;18.90;62.90
18252;DHT22;26917;52.328;20.878;2022-09-06T14:43:52;18.80;62.40
18252;DHT22;26917;52.328;20.878;2022-09-06T14:46:34;18.80;61.30
18252;DHT22;26917;52.328;20.878;2022-09-06T14:49:07;18.80;61.80
18252;DHT22;26917;52.328;20.878;2022-09-06T14:52:24;18.80;61.10
18252;DHT22;26917;52.328;20.878;2022-09-06T14:55:19;18.80;61.60
18252;DHT22;26917;52.328;20.878;2022-09-06T14:58:34;18.80;62.30
18252;DHT22;26917;52.328;20.878;2022-09-06T15:01:08;18.70;62.60
18252;DHT22;26917;52.328;20.878;2022-09-06T15:04:19;18.70;62.90
18252;DHT22;26917;52.328;20.878;2022-09-06T15:07:30;18.70;63.30
18252;DHT22;26917;52.328;20.878;2022-09-06T15:10:51;18.70;63.90
18252;DHT22;26917;52.328;20.878;2022-09-06T15:13:47;18.60;62.90
18252;DHT22;26917;52.328;20.878;2022-09-06T15:16:33;18.50;62.10
18252;DHT22;26917;52.328;20.878;2022-09-06T15:20:07;18.60;63.00
18252;DHT22;26917;52.328;20.878;2022-09-06T15:22:41;18.60;63.60
18252;DHT22;26917;52.328;20.878;2022-09-06T15:25:59;18.50;63.30
18252;DHT22;26917;52.328;20.878;2022-09-06T15:28:48;18.50;63.20
18252;DHT22;26917;52.328;20.878;2022-09-06T15:31:17;18.40;62.60
18252;DHT22;26917;52.328;20.878;2022-09-06T15:33:49;18.40;63.10
18252;DHT22;26917;52.328;20.878;2022-09-06T15:36:18;18.30;63.40
18252;DHT22;26917;52.328;20.878;2022-09-06T15:40:09;18.30;63.40
18252;DHT22;26917;52.328;20.878;2022-09-06T15:42:57;18.20;63.50
18252;DHT22;26917;52.328;20.878;2022-09-06T15:46:04;18.10;63.70
18252;DHT22;26917;52.328;20.878;2022-09-06T15:49:19;18.10;64.30
18252;DHT22;26917;52.328;20.878;2022-09-06T15:51:54;18.00;64.90
18252;DHT22;26917;52.328;20.878;2022-09-06T15:54:24;18.00;65.20
18252;DHT22;26917;52.328;20.878;2022-09-06T15:57:08;18.00;65.40
18252;DHT22;26917;52.328;20.878;2022-09-06T15:59:39;17.90;66.20
18252;DHT22;26917;52.328;20.878;2022-09-06T16:02:27;17.80;66.50
18252;DHT22;26917;52.328;20.878;2022-09-06T16:05:17;17.70;66.70
18252;DHT22;26917;52.328;20.878;2022-09-06T16:11:40;17.50;68.60
18252;DHT22;26917;52.328;20.878;2022-09-06T16:14:13;17.40;68.80
18252;DHT22;26917;52.328;20.878;2022-09-06T16:16:45;17.30;69.60
18252;DHT22;26917;52.328;20.878;2022-09-06T16:19:18;17.20;69.40
18252;DHT22;26917;52.328;20.878;2022-09-06T16:21:47;17.10;69.40
18252;DHT22;26917;52.328;20.878;2022-09-06T16:24:17;17.10;69.20
18252;DHT22;26917;52.328;20.878;2022-09-06T16:26:47;17.00;69.60
18252;DHT22;26917;52.328;20.878;2022-09-06T16:29:17;16.90;69.60
18252;DHT22;26917;52.328;20.878;2022-09-06T16:31:49;16.90;70.30
18252;DHT22;26917;52.328;20.878;2022-09-06T16:34:59;16.70;70.30
18252;DHT22;26917;52.328;20.878;2022-09-06T16:37:28;16.70;71.30
18252;DHT22;26917;52.328;20.878;2022-09-06T16:39:58;16.60;72.50
18252;DHT22;26917;52.328;20.878;2022-09-06T16:42:27;16.50;71.50
18252;DHT22;26917;52.328;20.878;2022-09-06T16:44:57;16.50;71.40
18252;DHT22;26917;52.328;20.878;2022-09-06T16:47:30;16.40;72.00
18252;DHT22;26917;52.328;20.878;2022-09-06T16:53:00;16.20;72.30
18252;DHT22;26917;52.328;20.878;2022-09-06T16:55:31;16.20;72.10
18252;DHT22;26917;52.328;20.878;2022-09-06T16:58:06;16.10;72.30
18252;DHT22;26917;52.328;20.878;2022-09-06T17:00:40;16.00;72.30
18252;DHT22;26917;52.328;20.878;2022-09-06T17:03:20;15.90;72.30
18252;DHT22;26917;52.328;20.878;2022-09-06T17:05:50;15.80;72.30
18252;DHT22;26917;52.328;20.878;2022-09-06T17:08:21;15.70;73.00
18252;DHT22;26917;52.328;20.878;2022-09-06T17:10:51;15.70;73.00
18252;DHT22;26917;52.328;20.878;2022-09-06T17:13:20;15.50;73.40
18252;DHT22;26917;52.328;20.878;2022-09-06T17:15:53;15.50;73.10
18252;DHT22;26917;52.328;20.878;2022-09-06T17:18:39;15.40;72.80
18252;DHT22;26917;52.328;20.878;2022-09-06T17:21:11;15.20;73.40
18252;DHT22;26917;52.328;20.878;2022-09-06T17:23:47;15.20;74.00
18252;DHT22;26917;52.328;20.878;2022-09-06T17:26:17;15.10;74.40
18252;DHT22;26917;52.328;20.878;2022-09-06T17:28:47;15.00;74.80
18252;DHT22;26917;52.328;20.878;2022-09-06T17:31:19;14.90;74.60
18252;DHT22;26917;52.328;20.878;2022-09-06T17:33:52;14.90;75.30
18252;DHT22;26917;52.328;20.878;2022-09-06T17:36:23;14.80;75.60
18252;DHT22;26917;52.328;20.878;2022-09-06T17:39:10;14.70;75.60
18252;DHT22;26917;52.328;20.878;2022-09-06T17:41:40;14.60;75.90
18252;DHT22;26917;52.328;20.878;2022-09-06T17:44:15;14.50;76.20
18252;DHT22;26917;52.328;20.878;2022-09-06T17:46:46;14.40;75.90
18252;DHT22;26917;52.328;20.878;2022-09-06T17:49:35;14.30;75.80
18252;DHT22;26917;52.328;20.878;2022-09-06T17:52:07;14.30;75.80
18252;DHT22;26917;52.328;20.878;2022-09-06T17:54:53;14.20;76.10
18252;DHT22;26917;52.328;20.878;2022-09-06T17:57:28;14.10;76.80
18252;DHT22;26917;52.328;20.878;2022-09-06T17:59:58;14.00;77.20
18252;DHT22;26917;52.328;20.878;2022-09-06T18:02:30;13.90;77.30
18252;DHT22;26917;52.328;20.878;2022-09-06T18:05:10;13.90;77.60
18252;DHT22;26917;52.328;20.878;2022-09-06T18:08:06;13.80;77.70
18252;DHT22;26917;52.328;20.878;2022-09-06T18:10:44;13.70;77.70
18252;DHT22;26917;52.328;20.878;2022-09-06T18:13:13;13.60;78.00
18252;DHT22;26917;52.328;20.878;2022-09-06T18:15:42;13.60;78.50
18252;DHT22;26917;52.328;20.878;2022-09-06T18:18:11;13.50;78.20
18252;DHT22;26917;52.328;20.878;2022-09-06T18:20:45;13.40;78.40
18252;DHT22;26917;52.328;20.878;2022-09-06T18:23:24;13.30;78.30
18252;DHT22;26917;52.328;20.878;2022-09-06T18:26:18;13.30;78.40
18252;DHT22;26917;52.328;20.878;2022-09-06T18:29:09;13.20;78.90
18252;DHT22;26917;52.328;20.878;2022-09-06T18:31:41;13.20;78.40
18252;DHT22;26917;52.328;20.878;2022-09-06T18:34:19;13.10;78.00
18252;DHT22;26917;52.328;20.878;2022-09-06T18:37:01;13.00;77.90
18252;DHT22;26917;52.328;20.878;2022-09-06T18:40:11;13.00;77.90
18252;DHT22;26917;52.328;20.878;2022-09-06T18:43:17;12.90;78.10
18252;DHT22;26917;52.328;20.878;2022-09-06T18:45:46;12.80;78.50
18252;DHT22;26917;52.328;20.878;2022-09-06T18:48:18;12.80;78.90
18252;DHT22;26917;52.328;20.878;2022-09-06T18:50:49;12.80;79.10
18252;DHT22;26917;52.328;20.878;2022-09-06T18:53:26;12.70;79.40
18252;DHT22;26917;52.328;20.878;2022-09-06T18:55:55;12.60;79.80
18252;DHT22;26917;52.328;20.878;2022-09-06T18:58:25;12.60;79.90
18252;DHT22;26917;52.328;20.878;2022-09-06T19:01:00;12.50;80.30
18252;DHT22;26917;52.328;20.878;2022-09-06T19:03:30;12.50;80.30
18252;DHT22;26917;52.328;20.878;2022-09-06T19:06:05;12.40;80.40
18252;DHT22;26917;52.328;20.878;2022-09-06T19:08:44;12.40;80.80
18252;DHT22;26917;52.328;20.878;2022-09-06T19:11:18;12.30;80.50
18252;DHT22;26917;52.328;20.878;2022-09-06T19:13:51;12.30;80.80
18252;DHT22;26917;52.328;20.878;2022-09-06T19:16:27;12.20;81.60
18252;DHT22;26917;52.328;20.878;2022-09-06T19:19:01;12.10;81.10
18252;DHT22;26917;52.328;20.878;2022-09-06T19:21:30;12.00;80.90
18252;DHT22;26917;52.328;20.878;2022-09-06T19:24:06;12.00;81.30
18252;DHT22;26917;52.328;20.878;2022-09-06T19:26:37;11.90;80.90
18252;DHT22;26917;52.328;20.878;2022-09-06T19:29:12;11.90;81.70
18252;DHT22;26917;52.328;20.878;2022-09-06T19:31:41;11.60;81.30
18252;DHT22;26917;52.328;20.878;2022-09-06T19:34:14;11.80;81.20
18252;DHT22;26917;52.328;20.878;2022-09-06T19:36:46;11.70;81.90
18252;DHT22;26917;52.328;20.878;2022-09-06T19:39:16;11.70;81.60
18252;DHT22;26917;52.328;20.878;2022-09-06T19:41:47;11.60;81.10
18252;DHT22;26917;52.328;20.878;2022-09-06T19:44:19;11.60;82.40
18252;DHT22;26917;52.328;20.878;2022-09-06T19:46:50;11.50;82.30
18252;DHT22;26917;52.328;20.878;2022-09-06T19:49:26;11.50;82.70
18252;DHT22;26917;52.328;20.878;2022-09-06T19:51:57;11.50;83.90
18252;DHT22;26917;52.328;20.878;2022-09-06T19:54:26;11.40;83.70
18252;DHT22;26917;52.328;20.878;2022-09-06T19:57:08;11.40;84.00
18252;DHT22;26917;52.328;20.878;2022-09-06T19:59:47;11.30;83.20
18252;DHT22;26917;52.328;20.878;2022-09-06T20:02:17;11.30;83.40
18252;DHT22;26917;52.328;20.878;2022-09-06T20:04:49;11.30;83.40
18252;DHT22;26917;52.328;20.878;2022-09-06T20:07:18;11.20;83.30
18252;DHT22;26917;52.328;20.878;2022-09-06T20:09:47;11.20;83.20
18252;DHT22;26917;52.328;20.878;2022-09-06T20:12:18;11.20;84.00
18252;DHT22;26917;52.328;20.878;2022-09-06T20:14:48;11.20;84.00
18252;DHT22;26917;52.328;20.878;2022-09-06T20:17:17;11.10;84.30
18252;DHT22;26917;52.328;20.878;2022-09-06T20:20:00;11.10;83.60
18252;DHT22;26917;52.328;20.878;2022-09-06T20:22:29;11.10;83.50
18252;DHT22;26917;52.328;20.878;2022-09-06T20:24:58;11.00;83.20
18252;DHT22;26917;52.328;20.878;2022-09-06T20:27:27;11.00;83.30
18252;DHT22;26917;52.328;20.878;2022-09-06T20:29:57;11.00;83.60
18252;DHT22;26917;52.328;20.878;2022-09-06T20:32:30;10.90;84.00
18252;DHT22;26917;52.328;20.878;2022-09-06T20:35:00;10.90;83.90
18252;DHT22;26917;52.328;20.878;2022-09-06T20:37:30;10.90;83.90
18252;DHT22;26917;52.328;20.878;2022-09-06T20:39:59;10.90;84.40
18252;DHT22;26917;52.328;20.878;2022-09-06T20:42:33;10.80;84.60
18252;DHT22;26917;52.328;20.878;2022-09-06T20:45:10;10.80;85.80
18252;DHT22;26917;52.328;20.878;2022-09-06T20:47:39;10.80;85.00
18252;DHT22;26917;52.328;20.878;2022-09-06T20:50:14;10.70;85.10
18252;DHT22;26917;52.328;20.878;2022-09-06T20:52:48;10.70;84.90
18252;DHT22;26917;52.328;20.878;2022-09-06T20:55:25;10.60;84.80
18252;DHT22;26917;52.328;20.878;2022-09-06T20:57:57;10.60;84.70
18252;DHT22;26917;52.328;20.878;2022-09-06T21:00:28;10.50;85.00
18252;DHT22;26917;52.328;20.878;2022-09-06T21:03:00;10.40;85.50
18252;DHT22;26917;52.328;20.878;2022-09-06T21:05:41;10.40;86.40
18252;DHT22;26917;52.328;20.878;2022-09-06T21:08:22;10.30;86.20
18252;DHT22;26917;52.328;20.878;2022-09-06T21:11:02;10.30;86.50
18252;DHT22;26917;52.328;20.878;2022-09-06T21:13:38;10.20;86.30
18252;DHT22;26917;52.328;20.878;2022-09-06T21:16:14;10.20;86.20
18252;DHT22;26917;52.328;20.878;2022-09-06T21:18:55;10.20;86.60
18252;DHT22;26917;52.328;20.878;2022-09-06T21:21:33;10.10;87.40
18252;DHT22;26917;52.328;20.878;2022-09-06T21:24:12;10.10;87.50
18252;DHT22;26917;52.328;20.878;2022-09-06T21:26:45;10.10;87.70
18252;DHT22;26917;52.328;20.878;2022-09-06T21:29:30;10.00;87.60
18252;DHT22;26917;52.328;20.878;2022-09-06T21:33:06;10.00;88.00
18252;DHT22;26917;52.328;20.878;2022-09-06T21:37:06;10.00;87.90
18252;DHT22;26917;52.328;20.878;2022-09-06T21:39:24;9.90;88.40
18252;DHT22;26917;52.328;20.878;2022-09-06T21:46:20;9.80;88.50
18252;DHT22;26917;52.328;20.878;2022-09-06T21:50:18;9.90;88.50
18252;DHT22;26917;52.328;20.878;2022-09-06T21:53:27;9.60;88.90
18252;DHT22;26917;52.328;20.878;2022-09-06T21:56:14;9.70;88.30
18252;DHT22;26917;52.328;20.878;2022-09-06T21:59:22;9.60;87.60
18252;DHT22;26917;52.328;20.878;2022-09-06T22:02:22;9.60;87.70
18252;DHT22;26917;52.328;20.878;2022-09-06T22:17:22;9.40;89.70
18252;DHT22;26917;52.328;20.878;2022-09-06T22:21:05;9.30;90.00
18252;DHT22;26917;52.328;20.878;2022-09-06T22:24:23;9.30;90.00
18252;DHT22;26917;52.328;20.878;2022-09-06T22:31:05;9.20;90.00
18252;DHT22;26917;52.328;20.878;2022-09-06T22:41:44;9.10;90.20
18252;DHT22;26917;52.328;20.878;2022-09-06T22:50:04;9.10;90.50
18252;DHT22;26917;52.328;20.878;2022-09-06T23:09:42;9.10;91.00
18252;DHT22;26917;52.328;20.878;2022-09-06T23:13:34;8.90;90.80
18252;DHT22;26917;52.328;20.878;2022-09-06T23:22:39;8.80;91.10
18252;DHT22;26917;52.328;20.878;2022-09-06T23:25:47;8.70;90.80
18252;DHT22;26917;52.328;20.878;2022-09-06T23:28:41;8.90;90.90
18252;DHT22;26917;52.328;20.878;2022-09-06T23:32:15;8.70;90.80
18252;DHT22;26917;52.328;20.878;2022-09-06T23:45:20;8.60;91.10
18252;DHT22;26917;52.328;20.878;2022-09-06T23:49:09;8.60;91.00
18252;DHT22;26917;52.328;20.878;2022-09-06T23:52:56;8.60;91.50
